createdAt,value
2023-02-23T00:00:08.775Z,15.00
2023-02-23T00:03:11.592Z,15.33
2023-02-23T00:06:14.430Z,15.43
2023-02-23T00:09:23.462Z,16.50
2023-02-23T00:12:27.192Z,16.08
2023-02-23T00:15:30.136Z,13.80
2023-02-23T00:18:41.642Z,12.90
2023-02-23T00:21:45.670Z,13.50
2023-02-23T00:24:50.382Z,13.00
2023-02-23T00:27:53.284Z,13.15
2023-02-23T00:30:56.099Z,13.50
2023-02-23T00:34:00.981Z,14.37
2023-02-23T00:37:03.672Z,12.60
2023-02-23T00:40:14.814Z,13.50
2023-02-23T00:43:19.107Z,13.60
2023-02-23T00:46:23.910Z,12.35
2023-02-23T00:49:27.060Z,12.90
2023-02-23T00:52:30.198Z,12.48
2023-02-23T00:55:32.875Z,13.18
2023-02-23T00:58:35.707Z,12.68
2023-02-23T01:01:39.202Z,12.50
2023-02-23T01:04:42.131Z,12.67
2023-02-23T01:07:47.564Z,11.48
2023-02-23T01:10:53.759Z,11.95
2023-02-23T01:13:58.275Z,12.27
2023-02-23T01:17:00.950Z,12.13
2023-02-23T01:20:13.387Z,13.87
2023-02-23T01:23:16.864Z,12.90
2023-02-23T01:26:30.632Z,13.70
2023-02-23T01:29:33.438Z,12.95
2023-02-23T01:32:37.970Z,13.15
2023-02-23T01:35:40.745Z,13.37
2023-02-23T01:38:43.536Z,13.25
2023-02-23T01:41:46.341Z,14.60
2023-02-23T01:44:50.619Z,15.02
2023-02-23T01:47:56.866Z,16.00
2023-02-23T01:51:12.030Z,15.03
2023-02-23T01:54:18.942Z,15.77
2023-02-23T01:57:25.209Z,15.98
2023-02-23T02:00:28.552Z,15.63
2023-02-23T02:03:46.387Z,15.70
2023-02-23T02:06:53.791Z,16.93
2023-02-23T02:10:13.086Z,15.68
2023-02-23T02:13:20.865Z,15.32
2023-02-23T02:16:42.773Z,17.25
2023-02-23T02:19:51.648Z,16.48
2023-02-23T02:23:31.557Z,16.43
2023-02-23T02:26:46.459Z,16.83
2023-02-23T02:30:17.052Z,17.17
2023-02-23T02:33:44.125Z,17.98
2023-02-23T02:37:05.121Z,17.27
2023-02-23T02:40:17.667Z,17.17
2023-02-23T02:43:27.873Z,18.37
2023-02-23T02:46:38.824Z,17.10
2023-02-23T02:49:46.306Z,17.75
2023-02-23T02:52:56.531Z,17.37
2023-02-23T02:56:00.628Z,16.60
2023-02-23T02:59:03.786Z,17.58
2023-02-23T03:02:25.909Z,16.37
2023-02-23T03:05:57.805Z,16.45
2023-02-23T03:09:30.829Z,16.12
2023-02-23T03:13:37.231Z,17.57
2023-02-23T03:17:29.353Z,16.58
2023-02-23T03:20:53.655Z,16.05
2023-02-23T03:24:36.516Z,14.93
2023-02-23T03:27:57.682Z,16.83
2023-02-23T03:31:44.432Z,15.53
2023-02-23T03:35:12.669Z,15.07
2023-02-23T03:39:03.218Z,14.82
2023-02-23T03:42:30.428Z,15.75
2023-02-23T03:45:52.192Z,16.45
2023-02-23T03:49:16.339Z,16.53
2023-02-23T03:52:41.089Z,15.48
2023-02-23T03:56:06.368Z,15.27
2023-02-23T03:59:28.577Z,14.23
2023-02-23T04:02:50.781Z,14.35
2023-02-23T04:06:13.316Z,14.03
2023-02-23T04:09:34.988Z,14.70
2023-02-23T04:13:03.321Z,14.35
2023-02-23T04:16:08.672Z,14.32
2023-02-23T04:19:12.289Z,13.40
2023-02-23T04:22:15.180Z,13.97
2023-02-23T04:25:19.490Z,13.35
2023-02-23T04:28:23.556Z,13.93
2023-02-23T04:31:26.679Z,13.65
2023-02-23T04:34:29.757Z,13.18
2023-02-23T04:37:32.894Z,12.60
2023-02-23T04:40:35.892Z,12.70
2023-02-23T04:43:38.664Z,13.23
2023-02-23T04:46:41.310Z,12.43
2023-02-23T04:49:44.569Z,13.15
2023-02-23T04:52:47.848Z,12.73
2023-02-23T04:55:50.574Z,13.07
2023-02-23T04:58:53.723Z,12.82
2023-02-23T05:01:56.736Z,12.82
2023-02-23T05:04:59.434Z,12.98
2023-02-23T05:08:02.078Z,13.17
2023-02-23T05:11:06.664Z,12.48
2023-02-23T05:14:12.757Z,13.07
2023-02-23T05:17:15.601Z,12.57
2023-02-23T05:20:18.428Z,12.13
2023-02-23T05:23:22.218Z,11.57
2023-02-23T05:26:25.020Z,11.77
2023-02-23T05:29:27.780Z,11.63
2023-02-23T05:32:30.618Z,11.68
2023-02-23T05:35:33.533Z,12.20
2023-02-23T05:38:36.487Z,10.80
2023-02-23T05:41:39.279Z,11.43
2023-02-23T05:44:41.991Z,10.90
2023-02-23T05:47:44.920Z,11.50
2023-02-23T05:50:47.647Z,11.52
2023-02-23T05:53:50.403Z,11.93
2023-02-23T05:56:53.087Z,11.65
2023-02-23T05:59:56.069Z,11.90
2023-02-23T06:02:58.945Z,11.30
2023-02-23T06:06:01.677Z,10.55
2023-02-23T06:09:04.991Z,11.57
2023-02-23T06:12:07.765Z,11.27
2023-02-23T06:15:11.077Z,11.60
2023-02-23T06:18:13.840Z,11.02
2023-02-23T06:21:16.668Z,11.07
2023-02-23T06:24:19.980Z,10.10
2023-02-23T06:27:22.863Z,11.80
2023-02-23T06:30:25.863Z,11.02
2023-02-23T06:33:28.695Z,10.02
2023-02-23T06:36:31.393Z,10.10
2023-02-23T06:39:34.164Z,10.03
2023-02-23T06:42:36.985Z,9.68
2023-02-23T06:45:39.853Z,10.20
2023-02-23T06:48:42.820Z,12.20
2023-02-23T06:51:45.777Z,10.27
2023-02-23T06:54:50.219Z,9.10
2023-02-23T06:57:53.664Z,8.98
2023-02-23T07:00:59.748Z,10.02
2023-02-23T07:04:02.528Z,10.75
2023-02-23T07:07:05.693Z,9.80
2023-02-23T07:10:09.484Z,9.87
2023-02-23T07:13:15.224Z,9.80
2023-02-23T07:16:18.127Z,9.40
2023-02-23T07:19:20.845Z,9.00
2023-02-23T07:22:25.528Z,9.55
2023-02-23T07:25:28.795Z,8.97
2023-02-23T07:28:31.573Z,9.02
2023-02-23T07:31:34.363Z,8.77
2023-02-23T07:34:38.046Z,8.38
2023-02-23T07:37:40.759Z,7.95
2023-02-23T07:40:43.426Z,8.30
2023-02-23T07:43:46.174Z,8.73
2023-02-23T07:46:49.731Z,7.95
2023-02-23T07:49:52.466Z,8.38
2023-02-23T07:52:55.229Z,8.90
2023-02-23T07:55:58.359Z,9.23
2023-02-23T07:59:01.122Z,8.25
2023-02-23T08:02:03.830Z,8.52
2023-02-23T08:05:07.135Z,8.30
2023-02-23T08:08:09.847Z,8.35
2023-02-23T08:11:12.645Z,8.97
2023-02-23T08:14:15.496Z,8.75
2023-02-23T08:17:20.253Z,8.48
2023-02-23T08:20:23.359Z,8.55
2023-02-23T08:23:26.192Z,7.97
2023-02-23T08:26:29.059Z,8.43
2023-02-23T08:29:32.094Z,8.38
2023-02-23T08:32:35.525Z,8.07
2023-02-23T08:35:38.488Z,7.37
2023-02-23T08:38:41.416Z,8.02
2023-02-23T08:41:45.092Z,7.60
2023-02-23T08:44:49.534Z,7.55
2023-02-23T08:47:52.265Z,7.40
2023-02-23T08:50:58.677Z,7.43
2023-02-23T08:54:02.059Z,8.82
2023-02-23T08:57:05.110Z,8.50
2023-02-23T09:00:14.468Z,8.15
2023-02-23T09:03:19.804Z,7.95
2023-02-23T09:06:25.695Z,7.57
2023-02-23T09:09:28.508Z,7.80
2023-02-23T09:12:31.445Z,8.20
2023-02-23T09:15:34.578Z,8.13
2023-02-23T09:18:37.716Z,8.43
2023-02-23T09:21:40.568Z,8.27
2023-02-23T09:24:43.336Z,7.57
2023-02-23T09:27:55.886Z,8.37
2023-02-23T09:31:06.674Z,8.80
2023-02-23T09:34:10.491Z,9.15
2023-02-23T09:37:13.261Z,8.00
2023-02-23T09:40:19.536Z,7.97
2023-02-23T09:43:34.350Z,7.40
2023-02-23T09:46:49.312Z,7.25
2023-02-23T09:49:52.381Z,6.82
2023-02-23T09:53:04.539Z,7.05
2023-02-23T09:56:17.318Z,7.55
2023-02-23T09:59:21.525Z,7.10
2023-02-23T10:02:39.903Z,6.32
2023-02-23T10:05:48.064Z,6.93
2023-02-23T10:09:04.199Z,7.40
2023-02-23T10:12:10.948Z,7.47
2023-02-23T10:15:35.567Z,7.03
2023-02-23T10:18:55.066Z,7.55
2023-02-23T10:22:02.747Z,7.93
2023-02-23T10:25:11.768Z,7.15
2023-02-23T10:28:21.752Z,7.62
2023-02-23T10:31:31.706Z,7.73
2023-02-23T10:34:35.824Z,6.90
2023-02-23T10:37:38.492Z,7.50
2023-02-23T10:40:41.935Z,8.02
2023-02-23T10:43:44.750Z,7.72
2023-02-23T10:46:54.201Z,7.17
2023-02-23T10:49:58.815Z,7.60
2023-02-23T10:53:17.825Z,7.32
2023-02-23T10:56:22.363Z,7.70
2023-02-23T10:59:25.269Z,7.93
2023-02-23T11:02:31.734Z,7.60
2023-02-23T11:05:44.234Z,7.28
2023-02-23T11:08:46.982Z,6.78
2023-02-23T11:11:58.311Z,7.25
2023-02-23T11:15:48.113Z,8.18
2023-02-23T11:19:03.125Z,7.30
2023-02-23T11:22:06.942Z,8.00
2023-02-23T11:25:32.268Z,6.90
2023-02-23T11:28:37.410Z,6.70
2023-02-23T11:31:47.625Z,8.00
2023-02-23T11:35:29.596Z,6.70
2023-02-23T11:38:34.610Z,7.07
2023-02-23T11:41:37.609Z,7.03
2023-02-23T11:44:40.335Z,7.32
2023-02-23T11:47:49.534Z,7.15
2023-02-23T11:50:53.406Z,6.67
2023-02-23T11:53:56.633Z,6.82
2023-02-23T11:57:02.792Z,6.70
2023-02-23T12:00:20.858Z,7.40
2023-02-23T12:03:26.350Z,7.20
2023-02-23T12:06:35.360Z,7.63
2023-02-23T12:09:39.125Z,6.60
2023-02-23T12:13:04.714Z,7.53
2023-02-23T12:16:18.150Z,7.00
2023-02-23T12:19:32.105Z,7.90
2023-02-23T12:22:40.238Z,6.80
2023-02-23T12:25:54.462Z,6.80
2023-02-23T12:29:02.750Z,8.27
2023-02-23T12:35:45.865Z,6.97
2023-02-23T12:39:05.486Z,7.20
2023-02-23T12:42:17.233Z,6.68
2023-02-23T12:45:38.123Z,7.40
2023-02-23T12:48:52.793Z,7.25
2023-02-23T12:52:02.420Z,7.80
2023-02-23T12:55:11.192Z,7.67
2023-02-23T12:58:35.367Z,7.35
2023-02-23T13:02:16.759Z,7.40
2023-02-23T13:09:18.772Z,8.07
2023-02-23T13:13:06.832Z,7.80
2023-02-23T13:16:23.131Z,8.05
2023-02-23T13:19:59.033Z,8.05
2023-02-23T13:23:11.040Z,8.10
2023-02-23T13:26:21.005Z,8.73
2023-02-23T13:29:31.901Z,8.33
2023-02-23T13:32:38.994Z,8.40
2023-02-23T13:35:43.233Z,7.75
2023-02-23T13:39:42.320Z,7.55
2023-02-23T13:43:01.503Z,8.40
2023-02-23T13:46:25.682Z,8.30
2023-02-23T13:49:42.371Z,7.93
2023-02-23T13:52:46.059Z,11.98
2023-02-23T13:55:51.953Z,18.33
2023-02-23T13:59:00.800Z,10.90
2023-02-23T14:02:18.506Z,12.80
2023-02-23T14:05:31.905Z,9.93
2023-02-23T14:08:37.442Z,10.25
2023-02-23T14:12:03.434Z,7.90
2023-02-23T14:15:28.361Z,8.32
2023-02-23T14:18:33.509Z,9.90
2023-02-23T14:21:43.595Z,9.95
2023-02-23T14:24:46.799Z,12.00
2023-02-23T14:28:00.803Z,11.23
2023-02-23T14:31:21.259Z,11.45
2023-02-23T14:34:45.789Z,9.50
2023-02-23T14:37:57.086Z,8.07
2023-02-23T14:41:02.674Z,8.50
2023-02-23T14:44:31.601Z,8.52
2023-02-23T14:47:43.147Z,8.50
2023-02-23T14:50:47.438Z,9.53
2023-02-23T14:53:55.370Z,11.80
2023-02-23T14:57:00.721Z,9.43
2023-02-23T15:00:13.330Z,9.23
2023-02-23T15:03:16.256Z,7.62
2023-02-23T15:06:25.041Z,7.10
2023-02-23T15:09:43.948Z,8.05
2023-02-23T15:12:47.937Z,8.30
2023-02-23T15:15:50.804Z,7.57
2023-02-23T15:18:53.912Z,8.23
2023-02-23T15:21:57.786Z,9.90
2023-02-23T15:25:02.819Z,8.45
2023-02-23T15:28:22.836Z,7.70
2023-02-23T15:31:30.489Z,7.68
2023-02-23T15:34:33.406Z,7.85
2023-02-23T15:37:45.382Z,7.77
2023-02-23T15:40:51.701Z,7.97
2023-02-23T15:43:56.383Z,9.60
2023-02-23T15:47:01.837Z,10.88
2023-02-23T15:50:09.530Z,10.10
2023-02-23T15:53:24.910Z,13.67
2023-02-23T15:56:30.133Z,12.95
2023-02-23T15:59:37.905Z,11.60
2023-02-23T16:02:41.486Z,9.82
2023-02-23T16:06:05.046Z,10.35
2023-02-23T16:09:21.400Z,10.83
2023-02-23T16:12:29.458Z,10.23
2023-02-23T16:15:37.793Z,9.85
2023-02-23T16:18:42.097Z,10.98
2023-02-23T16:21:54.035Z,11.20
2023-02-23T16:25:00.924Z,11.40
2023-02-23T16:28:13.861Z,12.77
2023-02-23T16:31:25.983Z,13.60
2023-02-23T16:34:37.408Z,14.02
2023-02-23T16:38:23.175Z,13.75
2023-02-23T16:41:28.123Z,12.83
2023-02-23T16:44:42.974Z,13.00
2023-02-23T16:47:50.345Z,12.82
2023-02-23T16:50:53.429Z,12.57
2023-02-23T16:53:57.245Z,14.40
2023-02-23T16:57:00.250Z,12.47
2023-02-23T17:00:14.718Z,13.18
2023-02-23T17:03:26.061Z,15.75
2023-02-23T17:06:29.159Z,12.05
2023-02-23T17:09:34.743Z,15.98
2023-02-23T17:12:39.424Z,12.67
2023-02-23T17:15:54.225Z,13.38
2023-02-23T17:19:00.047Z,13.90
2023-02-23T17:22:05.526Z,10.27
2023-02-23T17:25:09.109Z,10.68
2023-02-23T17:28:12.004Z,10.93
2023-02-23T17:31:16.794Z,10.40
2023-02-23T17:34:20.008Z,19.67
2023-02-23T17:37:23.034Z,12.65
2023-02-23T17:40:31.377Z,10.10
2023-02-23T17:43:35.474Z,12.20
2023-02-23T17:46:38.824Z,25.48
2023-02-23T17:49:41.991Z,20.15
2023-02-23T17:52:45.882Z,18.15
2023-02-23T17:55:51.355Z,10.95
2023-02-23T17:58:56.321Z,12.40
2023-02-23T18:01:59.393Z,13.73
2023-02-23T18:05:02.448Z,12.65
2023-02-23T18:08:06.393Z,13.65
2023-02-23T18:11:09.528Z,12.88
2023-02-23T18:14:14.649Z,15.40
2023-02-23T18:17:17.579Z,14.07
2023-02-23T18:20:21.888Z,15.43
2023-02-23T18:23:29.879Z,14.05
2023-02-23T18:26:32.910Z,11.57
2023-02-23T18:29:36.524Z,11.60
2023-02-23T18:32:39.830Z,12.85
2023-02-23T18:35:45.723Z,13.95
2023-02-23T18:38:49.343Z,11.12
2023-02-23T18:41:52.600Z,11.95
2023-02-23T18:44:55.804Z,11.83
2023-02-23T18:47:58.874Z,12.68
2023-02-23T18:51:05.095Z,11.55
2023-02-23T18:54:16.903Z,11.10
2023-02-23T18:57:19.910Z,10.10
2023-02-23T19:00:23.342Z,10.60
2023-02-23T19:03:26.447Z,10.73
2023-02-23T19:06:29.884Z,9.60
2023-02-23T19:09:33.084Z,10.48
2023-02-23T19:12:36.310Z,9.82
2023-02-23T19:15:39.852Z,9.70
2023-02-23T19:18:42.753Z,10.05
2023-02-23T19:21:45.921Z,9.35
2023-02-23T19:24:49.266Z,9.48
2023-02-23T19:27:52.526Z,8.98
2023-02-23T19:31:10.524Z,9.33
2023-02-23T19:34:15.367Z,10.30
2023-02-23T19:37:18.463Z,9.38
2023-02-23T19:40:24.051Z,9.35
2023-02-23T19:43:27.818Z,9.50
2023-02-23T19:46:31.208Z,9.10
2023-02-23T19:49:34.304Z,9.15
2023-02-23T19:52:39.178Z,10.30
2023-02-23T19:55:42.417Z,9.85
2023-02-23T19:58:46.916Z,9.50
2023-02-23T20:01:51.743Z,9.83
2023-02-23T20:04:54.928Z,9.13
2023-02-23T20:07:58.154Z,9.27
2023-02-23T20:11:01.264Z,9.45
2023-02-23T20:14:05.283Z,9.43
2023-02-23T20:17:09.353Z,9.40
2023-02-23T20:20:12.899Z,8.32
2023-02-23T20:23:16.573Z,9.13
2023-02-23T20:26:30.994Z,9.30
2023-02-23T20:29:34.493Z,9.15
2023-02-23T20:32:37.689Z,9.90
2023-02-23T20:35:41.446Z,8.85
2023-02-23T20:38:44.549Z,8.50
2023-02-23T20:41:48.097Z,9.38
2023-02-23T20:44:51.151Z,9.10
2023-02-23T20:47:54.258Z,8.97
2023-02-23T20:50:57.874Z,9.00
2023-02-23T20:54:00.762Z,9.20
2023-02-23T20:57:08.010Z,8.80
2023-02-23T21:00:12.343Z,9.40
2023-02-23T21:03:16.418Z,10.03
2023-02-23T21:06:20.771Z,9.05
2023-02-23T21:09:23.704Z,10.07
2023-02-23T21:12:27.990Z,9.10
2023-02-23T21:15:33.013Z,8.88
2023-02-23T21:18:39.402Z,9.90
2023-02-23T21:21:45.084Z,8.90
2023-02-23T21:24:48.341Z,10.02
2023-02-23T21:27:52.019Z,9.48
2023-02-23T21:30:55.453Z,9.18
2023-02-23T21:33:58.515Z,9.47
2023-02-23T21:37:01.792Z,9.25
2023-02-23T21:40:08.469Z,9.45
2023-02-23T21:43:13.150Z,9.60
2023-02-23T21:46:17.158Z,9.80
2023-02-23T21:49:21.591Z,9.03
2023-02-23T21:52:24.249Z,8.93
2023-02-23T21:55:26.920Z,9.13
2023-02-23T21:58:29.858Z,8.82
2023-02-23T22:01:35.505Z,8.80
2023-02-23T22:04:39.233Z,9.50
2023-02-23T22:07:42.413Z,8.85
2023-02-23T22:10:46.567Z,8.95
2023-02-23T22:13:54.618Z,8.93
2023-02-23T22:16:57.851Z,9.07
2023-02-23T22:20:00.547Z,8.33
2023-02-23T22:23:03.657Z,8.77
2023-02-23T22:26:06.655Z,9.30
2023-02-23T22:29:10.630Z,8.65
2023-02-23T22:32:13.565Z,8.82
2023-02-23T22:35:16.623Z,9.67
2023-02-23T22:38:19.585Z,8.57
2023-02-23T22:41:22.719Z,7.70
2023-02-23T22:44:25.687Z,8.15
2023-02-23T22:47:28.498Z,8.23
2023-02-23T22:50:31.648Z,8.60
2023-02-23T22:53:34.463Z,8.45
2023-02-23T22:56:37.218Z,8.45
2023-02-23T22:59:40.033Z,8.77
2023-02-23T23:02:43.237Z,8.30
2023-02-23T23:05:51.260Z,7.93
2023-02-23T23:08:56.311Z,8.38
2023-02-23T23:11:59.361Z,8.10
2023-02-23T23:15:07.400Z,8.23
2023-02-23T23:18:14.612Z,8.07
2023-02-23T23:21:22.154Z,7.77
2023-02-23T23:24:25.653Z,7.93
2023-02-23T23:27:33.446Z,7.97
2023-02-23T23:30:37.489Z,8.07
2023-02-23T23:33:47.822Z,8.30
2023-02-23T23:36:50.553Z,8.07
2023-02-23T23:39:59.506Z,8.48
2023-02-23T23:43:02.256Z,8.13
2023-02-23T23:46:06.242Z,8.65
2023-02-23T23:49:16.111Z,8.18
2023-02-23T23:52:18.813Z,8.10
2023-02-23T23:55:22.544Z,7.87
2023-02-23T23:58:26.979Z,8.15
